createdAt,value
2019-02-12T00:01:27.799Z,1.83
2019-02-12T00:03:58.774Z,1.67
2019-02-12T00:06:30.541Z,1.50
2019-02-12T00:08:59.663Z,1.30
2019-02-12T00:11:30.793Z,1.30
2019-02-12T00:14:00.043Z,0.87
2019-02-12T00:16:30.730Z,1.97
2019-02-12T00:18:58.667Z,1.73
2019-02-12T00:21:37.261Z,1.90
2019-02-12T00:24:02.928Z,1.40
2019-02-12T00:26:30.781Z,1.57
2019-02-12T00:29:02.145Z,1.33
2019-02-12T00:31:32.186Z,1.40
2019-02-12T00:34:00.476Z,1.93
2019-02-12T00:36:28.934Z,1.50
2019-02-12T00:38:59.422Z,1.57
2019-02-12T00:41:31.801Z,2.00
2019-02-12T00:44:00.048Z,1.90
2019-02-12T00:46:27.867Z,1.50
2019-02-12T00:48:56.405Z,1.77
2019-02-12T00:51:34.668Z,2.10
2019-02-12T00:54:24.352Z,1.97
2019-02-12T00:56:52.452Z,1.27
2019-02-12T00:59:20.989Z,1.60
2019-02-12T01:01:48.976Z,1.30
2019-02-12T01:04:19.511Z,1.93
2019-02-12T01:06:47.639Z,1.40
2019-02-12T01:09:16.142Z,1.93
2019-02-12T01:11:57.574Z,1.77
2019-02-12T01:14:25.699Z,1.70
2019-02-12T01:16:53.953Z,2.17
2019-02-12T01:19:22.203Z,1.50
2019-02-12T01:21:50.224Z,1.90
2019-02-12T01:24:23.707Z,2.40
2019-02-12T01:26:52.292Z,1.43
2019-02-12T01:29:20.396Z,1.50
2019-02-12T01:31:48.242Z,1.50
2019-02-12T01:34:15.966Z,1.57
2019-02-12T01:36:44.072Z,2.07
2019-02-12T01:39:12.829Z,1.40
2019-02-12T01:41:41.315Z,1.67
2019-02-12T01:44:09.647Z,1.30
2019-02-12T01:46:38.328Z,1.53
2019-02-12T01:49:06.152Z,1.60
2019-02-12T01:51:35.310Z,2.23
2019-02-12T01:54:03.311Z,1.67
2019-02-12T01:56:31.627Z,1.40
2019-02-12T01:58:59.749Z,1.27
2019-02-12T02:01:27.680Z,1.87
2019-02-12T02:03:55.547Z,2.00
2019-02-12T02:06:23.385Z,1.40
2019-02-12T02:08:51.558Z,1.70
2019-02-12T02:11:19.172Z,1.87
2019-02-12T02:13:47.169Z,1.47
2019-02-12T02:16:15.133Z,1.10
2019-02-12T02:18:43.232Z,1.77
2019-02-12T02:21:11.109Z,1.23
2019-02-12T02:23:39.082Z,1.33
2019-02-12T02:26:07.328Z,1.20
2019-02-12T02:28:35.365Z,1.23
2019-02-12T02:31:03.388Z,1.17
2019-02-12T02:33:31.289Z,1.03
2019-02-12T02:35:59.367Z,1.20
2019-02-12T02:38:27.555Z,1.13
2019-02-12T02:40:56.548Z,1.13
2019-02-12T02:43:24.955Z,1.30
2019-02-12T02:45:52.929Z,1.33
2019-02-12T02:48:20.605Z,1.10
2019-02-12T02:50:49.352Z,1.73
2019-02-12T02:53:18.818Z,1.80
2019-02-12T02:55:48.581Z,1.73
2019-02-12T02:58:20.885Z,1.23
2019-02-12T03:00:49.572Z,1.30
2019-02-12T03:03:18.246Z,0.90
2019-02-12T03:05:46.610Z,1.10
2019-02-12T03:08:15.137Z,1.13
2019-02-12T03:10:43.298Z,1.33
2019-02-12T03:13:11.726Z,0.80
2019-02-12T03:15:39.614Z,0.90
2019-02-12T03:18:10.084Z,1.40
2019-02-12T03:20:39.466Z,1.33
2019-02-12T03:26:38.246Z,1.33
2019-02-12T03:29:06.712Z,0.80
2019-02-12T03:31:34.837Z,1.10
2019-02-12T03:34:03.037Z,0.90
2019-02-12T03:36:31.216Z,0.90
2019-02-12T03:39:00.973Z,1.30
2019-02-12T03:41:29.176Z,1.10
2019-02-12T03:43:57.446Z,1.20
2019-02-12T03:46:25.654Z,1.93
2019-02-12T03:49:01.442Z,1.43
2019-02-12T03:51:36.966Z,1.33
2019-02-12T03:54:05.561Z,1.70
2019-02-12T03:56:34.034Z,1.40
2019-02-12T03:59:02.383Z,2.00
2019-02-12T04:01:31.026Z,1.60
2019-02-12T04:03:59.469Z,1.27
2019-02-12T04:06:27.432Z,1.17
2019-02-12T04:08:56.030Z,1.83
2019-02-12T04:11:24.381Z,1.63
2019-02-12T04:13:52.588Z,1.77
2019-02-12T04:16:20.635Z,2.13
2019-02-12T04:18:48.703Z,1.40
2019-02-12T04:21:16.683Z,1.93
2019-02-12T04:23:44.882Z,1.40
2019-02-12T04:26:13.088Z,1.50
2019-02-12T04:28:41.241Z,1.70
2019-02-12T04:31:09.598Z,1.17
2019-02-12T04:33:54.053Z,1.30
2019-02-12T04:36:13.824Z,2.03
2019-02-12T04:38:42.492Z,1.77
2019-02-12T04:41:10.725Z,2.83
2019-02-12T04:43:38.972Z,1.97
2019-02-12T04:46:15.754Z,1.50
2019-02-12T04:48:44.298Z,1.80
2019-02-12T04:51:27.306Z,1.60
2019-02-12T04:53:56.779Z,2.20
2019-02-12T04:56:24.598Z,1.57
2019-02-12T04:58:52.499Z,1.90
2019-02-12T05:01:20.156Z,1.80
2019-02-12T05:03:48.391Z,2.70
2019-02-12T05:12:11.323Z,2.20
2019-02-12T05:14:50.811Z,2.30
2019-02-12T05:17:50.681Z,3.07
2019-02-12T05:26:58.408Z,1.90
2019-02-12T05:29:27.207Z,1.83
2019-02-12T05:32:04.831Z,1.80
2019-02-12T05:34:43.762Z,2.20
2019-02-12T05:37:12.617Z,1.97
2019-02-12T05:39:49.913Z,2.00
2019-02-12T05:42:25.635Z,1.50
2019-02-12T05:45:33.680Z,2.00
2019-02-12T05:48:02.833Z,1.80
2019-02-12T05:50:40.037Z,2.13
2019-02-12T05:53:45.175Z,2.30
2019-02-12T05:56:36.160Z,1.80
2019-02-12T06:02:46.595Z,2.17
2019-02-12T06:11:33.947Z,1.57
2019-02-12T06:14:04.236Z,1.60
2019-02-12T06:17:04.329Z,2.23
2019-02-12T06:19:35.279Z,1.70
2019-02-12T06:22:03.930Z,2.03
2019-02-12T06:24:52.929Z,1.90
2019-02-12T06:27:25.415Z,1.87
2019-02-12T06:29:55.864Z,2.00
2019-02-12T06:32:45.247Z,2.30
2019-02-12T06:38:17.955Z,1.60
2019-02-12T06:40:46.936Z,2.23
2019-02-12T06:43:47.063Z,2.10
2019-02-12T06:46:19.709Z,2.47
2019-02-12T06:49:18.312Z,1.70
2019-02-12T06:52:19.663Z,1.97
2019-02-12T06:55:18.175Z,1.83
2019-02-12T06:58:06.498Z,2.17
2019-02-12T07:00:50.011Z,2.67
2019-02-12T07:03:22.036Z,2.40
2019-02-12T07:09:52.055Z,2.10
2019-02-12T07:12:47.610Z,2.50
2019-02-12T07:15:51.988Z,2.27
2019-02-12T07:19:00.029Z,1.80
2019-02-12T07:21:56.240Z,1.80
2019-02-12T07:24:57.902Z,1.90
2019-02-12T07:27:58.484Z,1.83
2019-02-12T07:31:24.024Z,1.60
2019-02-12T07:34:37.934Z,2.00
2019-02-12T07:37:37.599Z,1.37
2019-02-12T07:40:38.729Z,2.47
2019-02-12T07:43:57.165Z,1.67
2019-02-12T07:46:56.245Z,3.83
2019-02-12T07:49:53.923Z,2.27
2019-02-12T07:52:59.926Z,2.43
2019-02-12T07:56:00.763Z,1.80
2019-02-12T07:58:57.859Z,2.20
2019-02-12T08:02:24.525Z,2.60
2019-02-12T08:05:43.713Z,2.83
2019-02-12T08:16:27.278Z,2.57
2019-02-12T08:33:45.702Z,2.80
2019-02-12T08:37:31.913Z,3.87
2019-02-12T08:47:48.701Z,2.80
2019-02-12T08:50:56.823Z,3.03
2019-02-12T08:54:03.698Z,2.37
2019-02-12T08:57:04.924Z,2.33
2019-02-12T09:00:23.602Z,2.10
2019-02-12T09:09:57.988Z,2.60
2019-02-12T09:12:45.646Z,2.00
2019-02-12T09:16:40.054Z,2.63
2019-02-12T09:20:08.038Z,2.23
2019-02-12T09:23:35.607Z,2.27
2019-02-12T09:26:49.025Z,2.30
2019-02-12T09:30:06.564Z,2.80
2019-02-12T09:33:28.139Z,3.13
2019-02-12T09:36:25.806Z,2.63
2019-02-12T09:43:08.313Z,2.60
2019-02-12T09:46:31.698Z,2.73
2019-02-12T09:49:57.745Z,2.53
2019-02-12T09:53:10.967Z,2.80
2019-02-12T10:00:29.859Z,2.90
2019-02-12T10:17:14.571Z,2.50
2019-02-12T10:20:39.370Z,3.07
2019-02-12T10:24:19.919Z,2.23
2019-02-12T10:27:45.881Z,2.87
2019-02-12T10:37:58.591Z,2.60
2019-02-12T12:48:59.427Z,1.53
2019-02-12T13:07:07.577Z,1.57
2019-02-12T13:09:47.181Z,1.80
2019-02-12T13:16:09.615Z,2.03
2019-02-12T13:25:10.146Z,1.57
2019-02-12T13:29:15.020Z,1.87
2019-02-12T13:31:51.240Z,1.67
2019-02-12T13:37:45.875Z,1.60
2019-02-12T13:43:32.856Z,2.50
2019-02-12T13:46:25.240Z,1.60
2019-02-12T13:50:15.770Z,1.70
2019-02-12T13:53:03.989Z,1.97
2019-02-12T15:07:15.183Z,2.53
2019-02-12T15:09:46.695Z,2.40
2019-02-12T15:15:06.771Z,2.97
2019-02-12T15:17:35.023Z,2.83
2019-02-12T15:20:04.005Z,2.43
2019-02-12T15:22:35.742Z,2.60
2019-02-12T15:25:41.787Z,2.17
2019-02-12T15:28:15.605Z,2.03
2019-02-12T15:30:50.214Z,1.93
2019-02-12T15:42:54.040Z,1.80
2019-02-12T15:45:27.565Z,2.73
2019-02-12T15:47:56.530Z,2.50
2019-02-12T15:53:36.202Z,2.63
2019-02-12T15:56:13.310Z,2.27
2019-02-12T15:58:42.076Z,2.63
2019-02-12T16:01:15.556Z,2.37
2019-02-12T16:03:48.762Z,3.03
2019-02-12T16:06:36.072Z,2.30
2019-02-12T16:39:43.885Z,2.87
2019-02-12T16:42:18.099Z,3.37
2019-02-12T16:44:54.997Z,2.80
2019-02-12T16:47:24.698Z,3.60
2019-02-12T16:49:53.341Z,4.20
2019-02-12T16:52:21.850Z,4.87
2019-02-12T16:54:49.695Z,3.80
2019-02-12T17:03:06.923Z,4.33
2019-02-12T17:06:10.555Z,5.77
2019-02-12T17:08:34.816Z,4.87
2019-02-12T17:11:18.309Z,4.87
2019-02-12T17:13:49.315Z,5.00
2019-02-12T17:16:18.746Z,5.13
2019-02-12T17:18:48.253Z,4.67
2019-02-12T17:31:17.603Z,5.63
2019-02-12T17:34:04.572Z,6.60
2019-02-12T17:37:11.442Z,6.77
2019-02-12T17:40:06.363Z,6.17
2019-02-12T18:29:00.429Z,10.00
2019-02-12T18:32:00.634Z,9.67
2019-02-12T18:34:31.761Z,10.37
2019-02-12T18:37:24.943Z,10.10
2019-02-12T18:39:46.322Z,11.07
2019-02-12T18:42:18.668Z,10.37
2019-02-12T18:47:54.833Z,11.13
2019-02-12T18:50:35.048Z,11.23
2019-02-12T19:39:16.680Z,15.87
2019-02-12T19:59:27.042Z,17.00
2019-02-12T20:05:25.476Z,16.40
2019-02-12T20:24:46.296Z,18.43
2019-02-12T20:36:28.634Z,19.27
2019-02-12T20:39:31.001Z,19.20
2019-02-12T20:52:10.259Z,19.20
2019-02-12T20:54:41.940Z,19.13
2019-02-12T20:57:15.147Z,20.63
2019-02-12T20:59:43.223Z,20.40
2019-02-12T21:02:44.608Z,19.33
2019-02-12T21:05:06.114Z,18.87
2019-02-12T21:07:35.309Z,19.13
2019-02-12T21:10:24.441Z,18.33
2019-02-12T21:13:00.794Z,19.07
2019-02-12T21:15:30.247Z,19.37
2019-02-12T21:17:58.453Z,19.70
2019-02-12T21:20:27.242Z,20.30
2019-02-12T21:23:04.742Z,20.63
2019-02-12T21:26:08.332Z,21.23
2019-02-12T21:37:41.838Z,20.13
2019-02-12T21:40:32.625Z,19.97
2019-02-12T21:43:00.651Z,20.90
2019-02-12T21:45:31.304Z,21.23
2019-02-12T21:47:59.233Z,21.70
2019-02-12T21:50:27.748Z,21.17
2019-02-12T21:52:56.999Z,21.73
2019-02-12T21:55:28.296Z,23.13
2019-02-12T21:57:58.783Z,21.50
2019-02-12T22:00:27.392Z,23.27
2019-02-12T22:02:56.017Z,23.03
2019-02-12T22:05:24.704Z,23.23
2019-02-12T22:07:54.134Z,23.90
2019-02-12T22:10:22.290Z,24.70
2019-02-12T22:12:50.441Z,23.77
2019-02-12T22:15:18.846Z,24.67
2019-02-12T22:17:48.693Z,24.97
2019-02-12T22:20:17.302Z,24.37
2019-02-12T22:22:46.577Z,25.40
2019-02-12T22:25:14.460Z,26.40
2019-02-12T22:27:42.619Z,26.70
2019-02-12T22:30:15.793Z,25.90
2019-02-12T22:32:43.701Z,26.47
2019-02-12T22:35:12.070Z,26.73
2019-02-12T22:37:40.358Z,26.60
2019-02-12T22:40:08.974Z,26.13
2019-02-12T22:42:37.192Z,27.60
2019-02-12T22:45:07.021Z,26.60
2019-02-12T22:47:36.943Z,27.40
2019-02-12T22:50:05.629Z,28.73
2019-02-12T22:52:33.349Z,28.23
2019-02-12T22:55:04.163Z,28.57
2019-02-12T22:57:32.411Z,27.87
2019-02-12T23:00:02.339Z,29.13
2019-02-12T23:02:30.602Z,28.20
2019-02-12T23:04:59.041Z,30.43
2019-02-12T23:07:27.054Z,27.50
2019-02-12T23:09:54.939Z,28.67
2019-02-12T23:12:23.933Z,28.13
2019-02-12T23:14:52.098Z,28.33
2019-02-12T23:17:20.898Z,28.93
2019-02-12T23:19:49.636Z,29.97
2019-02-12T23:22:18.144Z,27.87
2019-02-12T23:24:46.582Z,28.30
2019-02-12T23:27:14.870Z,28.80
2019-02-12T23:29:43.119Z,29.80
2019-02-12T23:32:11.196Z,28.60
2019-02-12T23:34:39.260Z,27.37
2019-02-12T23:37:07.193Z,28.47
2019-02-12T23:39:35.584Z,27.90
2019-02-12T23:42:03.844Z,28.60
2019-02-12T23:44:32.171Z,29.03
2019-02-12T23:47:00.715Z,26.63
2019-02-12T23:49:28.772Z,28.93
2019-02-12T23:51:57.269Z,29.00
2019-02-12T23:57:16.705Z,28.73
2019-02-12T23:59:46.498Z,29.53
